CAT9701 EKCH-EKBI
Flight info
| Callsign | CAT9701 |
|---|---|
| Flight time | 0h 28m |
| Altitude | 20000 |
| Route | ODDON DCT LOKSA |
| Aircraft | B738/M-SDE2E3FGHIRWXY/LB1 |
Departure
| Time | 2026-04-22 12:40 |
|---|---|
| Airport | Copenhagen Kastrup Airport (EKCH) |
Arrival
| Time | 2026-04-22 13:08 |
|---|---|
| Airport | Billund Airport (EKBI) |
| Time | Latitude | Longitude | Altitude | Speed | Heading |
|---|---|---|---|---|---|
| 2026-04-22 12:11 | 55.62705 | 12.65394 | 23 ft | 0 kts | 27° |
| 2026-04-22 12:31 | 55.62692 | 12.65383 | 24 ft | 4 kts | 27° |
| 2026-04-22 12:31 | 55.62669 | 12.65361 | 28 ft | 4 kts | 30° |
| 2026-04-22 12:31 | 55.62646 | 12.65336 | 27 ft | 4 kts | 32° |
| 2026-04-22 12:31 | 55.62622 | 12.65319 | 28 ft | 4 kts | 359° |
| 2026-04-22 12:32 | 55.62600 | 12.65320 | 28 ft | 0 kts | 359° |
| 2026-04-22 12:34 | 55.62607 | 12.65320 | 25 ft | 1 kts | 359° |
| 2026-04-22 12:34 | 55.62645 | 12.65296 | 26 ft | 8 kts | 319° |
| 2026-04-22 12:34 | 55.62649 | 12.65228 | 23 ft | 6 kts | 248° |
| 2026-04-22 12:34 | 55.62615 | 12.65184 | 24 ft | 6 kts | 195° |
| 2026-04-22 12:35 | 55.62569 | 12.65182 | 23 ft | 7 kts | 178° |
| 2026-04-22 12:35 | 55.62514 | 12.65185 | 23 ft | 9 kts | 178° |
| 2026-04-22 12:35 | 55.62437 | 12.65195 | 25 ft | 13 kts | 173° |
| 2026-04-22 12:35 | 55.62338 | 12.65204 | 23 ft | 15 kts | 182° |
| 2026-04-22 12:36 | 55.62229 | 12.65189 | 23 ft | 16 kts | 196° |
| 2026-04-22 12:36 | 55.62136 | 12.65095 | 23 ft | 15 kts | 213° |
| 2026-04-22 12:36 | 55.62049 | 12.64994 | 23 ft | 15 kts | 213° |
| 2026-04-22 12:36 | 55.61957 | 12.64889 | 24 ft | 17 kts | 212° |
| 2026-04-22 12:37 | 55.61853 | 12.64770 | 26 ft | 19 kts | 213° |
| 2026-04-22 12:37 | 55.61739 | 12.64639 | 23 ft | 20 kts | 213° |
| 2026-04-22 12:37 | 55.61615 | 12.64497 | 23 ft | 22 kts | 213° |
| 2026-04-22 12:37 | 55.61485 | 12.64347 | 26 ft | 22 kts | 213° |
| 2026-04-22 12:38 | 55.61357 | 12.64199 | 24 ft | 22 kts | 213° |
| 2026-04-22 12:38 | 55.61230 | 12.64117 | 25 ft | 16 kts | 161° |
| 2026-04-22 12:38 | 55.61192 | 12.64274 | 23 ft | 15 kts | 77° |
| 2026-04-22 12:38 | 55.61229 | 12.64470 | 24 ft | 19 kts | 71° |
| 2026-04-22 12:39 | 55.61270 | 12.64731 | 25 ft | 24 kts | 78° |
| 2026-04-22 12:39 | 55.61920 | 12.65790 | 25 ft | 129 kts | 41° |
| 2026-04-22 12:39 | 55.62672 | 12.67019 | 415 ft | 152 kts | 35° |
| 2026-04-22 12:40 | 55.63449 | 12.68277 | 1345 ft | 145 kts | 33° |
| 2026-04-22 12:40 | 55.64226 | 12.69465 | 2123 ft | 152 kts | 34° |
| 2026-04-22 12:40 | 55.65134 | 12.70727 | 2488 ft | 179 kts | 21° |
| 2026-04-22 12:40 | 55.65928 | 12.71101 | 2673 ft | 190 kts | 358° |
| 2026-04-22 12:41 | 55.66720 | 12.70874 | 2793 ft | 202 kts | 338° |
| 2026-04-22 12:41 | 55.67913 | 12.69335 | 3000 ft | 226 kts | 317° |
| 2026-04-22 12:41 | 55.68671 | 12.67942 | 3296 ft | 234 kts | 316° |
| 2026-04-22 12:42 | 55.69259 | 12.66821 | 3621 ft | 239 kts | 315° |
| 2026-04-22 12:42 | 55.70404 | 12.64612 | 4452 ft | 244 kts | 315° |
| 2026-04-22 12:42 | 55.71490 | 12.62242 | 5296 ft | 253 kts | 300° |
| 2026-04-22 12:42 | 55.71969 | 12.59176 | 6222 ft | 263 kts | 282° |
| 2026-04-22 12:43 | 55.72123 | 12.55892 | 7096 ft | 271 kts | 277° |
| 2026-04-22 12:43 | 55.72191 | 12.52534 | 7953 ft | 275 kts | 276° |
| 2026-04-22 12:43 | 55.72244 | 12.49103 | 8845 ft | 280 kts | 276° |
| 2026-04-22 12:43 | 55.72314 | 12.45645 | 9773 ft | 283 kts | 276° |
| 2026-04-22 12:44 | 55.72392 | 12.42104 | 10616 ft | 291 kts | 276° |
| 2026-04-22 12:44 | 55.72478 | 12.38371 | 10914 ft | 318 kts | 276° |
| 2026-04-22 12:44 | 55.72571 | 12.34286 | 11179 ft | 343 kts | 275° |
| 2026-04-22 12:44 | 55.72663 | 12.29977 | 11781 ft | 355 kts | 275° |
| 2026-04-22 12:45 | 55.72750 | 12.25566 | 12583 ft | 360 kts | 275° |
| 2026-04-22 12:45 | 55.72836 | 12.21101 | 13449 ft | 365 kts | 275° |
| 2026-04-22 12:45 | 55.72921 | 12.16565 | 14287 ft | 371 kts | 275° |
| 2026-04-22 12:45 | 55.73006 | 12.11951 | 15084 ft | 376 kts | 275° |
| 2026-04-22 12:46 | 55.73091 | 12.07272 | 15933 ft | 381 kts | 274° |
| 2026-04-22 12:46 | 55.73175 | 12.02601 | 16760 ft | 386 kts | 274° |
| 2026-04-22 12:46 | 55.73259 | 11.97808 | 17599 ft | 390 kts | 274° |
| 2026-04-22 12:46 | 55.73341 | 11.92998 | 18638 ft | 389 kts | 274° |
| 2026-04-22 12:47 | 55.73420 | 11.88217 | 19596 ft | 386 kts | 274° |
| 2026-04-22 12:47 | 55.73499 | 11.83419 | 20093 ft | 388 kts | 274° |
| 2026-04-22 12:47 | 55.73575 | 11.78641 | 20298 ft | 385 kts | 274° |
| 2026-04-22 12:47 | 55.73646 | 11.73982 | 20286 ft | 370 kts | 274° |
| 2026-04-22 12:48 | 55.73713 | 11.69504 | 20294 ft | 357 kts | 274° |
| 2026-04-22 12:48 | 55.73776 | 11.65154 | 20154 ft | 350 kts | 274° |
| 2026-04-22 12:48 | 55.73839 | 11.60882 | 19955 ft | 342 kts | 274° |
| 2026-04-22 12:48 | 55.73899 | 11.56680 | 19653 ft | 339 kts | 274° |
| 2026-04-22 12:49 | 55.73957 | 11.52573 | 19353 ft | 336 kts | 274° |
| 2026-04-22 12:49 | 55.74015 | 11.48447 | 19048 ft | 333 kts | 274° |
| 2026-04-22 12:49 | 55.74070 | 11.44307 | 18740 ft | 330 kts | 274° |
| 2026-04-22 12:49 | 55.74123 | 11.40296 | 18407 ft | 328 kts | 274° |
| 2026-04-22 12:50 | 55.74175 | 11.36253 | 18070 ft | 326 kts | 274° |
| 2026-04-22 12:50 | 55.74224 | 11.32240 | 17738 ft | 324 kts | 274° |
| 2026-04-22 12:50 | 55.74271 | 11.28262 | 17429 ft | 321 kts | 274° |
| 2026-04-22 12:50 | 55.74317 | 11.24332 | 17115 ft | 318 kts | 274° |
| 2026-04-22 12:51 | 55.74362 | 11.20424 | 16819 ft | 315 kts | 274° |
| 2026-04-22 12:51 | 55.74405 | 11.16538 | 16519 ft | 313 kts | 274° |
| 2026-04-22 12:51 | 55.74446 | 11.12691 | 16214 ft | 310 kts | 274° |
| 2026-04-22 12:51 | 55.74486 | 11.08874 | 15915 ft | 308 kts | 274° |
| 2026-04-22 12:52 | 55.74524 | 11.05080 | 15613 ft | 306 kts | 274° |
| 2026-04-22 12:52 | 55.74561 | 11.01322 | 15320 ft | 304 kts | 274° |
| 2026-04-22 12:52 | 55.74597 | 10.97569 | 15047 ft | 303 kts | 274° |
| 2026-04-22 12:52 | 55.74631 | 10.93874 | 14754 ft | 303 kts | 274° |
| 2026-04-22 12:53 | 55.74665 | 10.90147 | 14456 ft | 302 kts | 274° |
| 2026-04-22 12:53 | 55.74697 | 10.86421 | 14161 ft | 300 kts | 274° |
| 2026-04-22 12:53 | 55.74727 | 10.82737 | 13844 ft | 297 kts | 274° |
| 2026-04-22 12:53 | 55.74756 | 10.79077 | 13537 ft | 295 kts | 274° |
| 2026-04-22 12:54 | 55.74783 | 10.75454 | 13241 ft | 292 kts | 274° |
| 2026-04-22 12:54 | 55.74810 | 10.71865 | 12958 ft | 291 kts | 274° |
| 2026-04-22 12:54 | 55.74836 | 10.68251 | 12680 ft | 294 kts | 274° |
| 2026-04-22 12:54 | 55.74863 | 10.64589 | 12396 ft | 299 kts | 274° |
| 2026-04-22 12:55 | 55.74880 | 10.62137 | 12199 ft | 302 kts | 274° |
| 2026-04-22 12:55 | 55.74911 | 10.57136 | 11793 ft | 301 kts | 274° |
| 2026-04-22 12:55 | 55.74932 | 10.53492 | 11479 ft | 298 kts | 274° |
| 2026-04-22 12:55 | 55.74952 | 10.49826 | 11137 ft | 296 kts | 274° |
| 2026-04-22 12:56 | 55.74970 | 10.46195 | 10829 ft | 293 kts | 274° |
| 2026-04-22 12:56 | 55.74988 | 10.42599 | 10652 ft | 286 kts | 274° |
| 2026-04-22 12:56 | 55.75002 | 10.39130 | 10469 ft | 277 kts | 274° |
| 2026-04-22 12:56 | 55.75017 | 10.35739 | 10008 ft | 274 kts | 274° |
| 2026-04-22 12:57 | 55.75031 | 10.32368 | 9582 ft | 272 kts | 274° |
| 2026-04-22 12:57 | 55.75046 | 10.29011 | 9271 ft | 271 kts | 274° |
| 2026-04-22 12:57 | 55.75059 | 10.25667 | 8995 ft | 272 kts | 274° |
| 2026-04-22 12:57 | 55.75069 | 10.22302 | 8679 ft | 273 kts | 274° |
| 2026-04-22 12:58 | 55.75079 | 10.18953 | 8350 ft | 271 kts | 274° |
| 2026-04-22 12:58 | 55.75091 | 10.15555 | 7852 ft | 277 kts | 274° |
| 2026-04-22 12:58 | 55.75100 | 10.12140 | 7526 ft | 276 kts | 274° |
| 2026-04-22 12:58 | 55.75107 | 10.08749 | 7236 ft | 273 kts | 274° |
| 2026-04-22 12:59 | 55.75114 | 10.05396 | 6948 ft | 271 kts | 273° |
| 2026-04-22 12:59 | 55.75119 | 10.02063 | 6679 ft | 269 kts | 274° |
| 2026-04-22 12:59 | 55.75124 | 9.98759 | 6395 ft | 267 kts | 274° |
| 2026-04-22 12:59 | 55.75131 | 9.95455 | 6129 ft | 266 kts | 273° |
| 2026-04-22 13:00 | 55.75135 | 9.92177 | 5849 ft | 266 kts | 273° |
| 2026-04-22 13:00 | 55.75137 | 9.88907 | 5585 ft | 264 kts | 273° |
| 2026-04-22 13:00 | 55.75137 | 9.85705 | 5326 ft | 262 kts | 273° |
| 2026-04-22 13:00 | 55.75138 | 9.82486 | 5080 ft | 259 kts | 272° |
| 2026-04-22 13:01 | 55.75138 | 9.79287 | 4810 ft | 260 kts | 272° |
| 2026-04-22 13:01 | 55.75135 | 9.76081 | 4523 ft | 258 kts | 272° |
| 2026-04-22 13:01 | 55.75132 | 9.72901 | 4276 ft | 257 kts | 272° |
| 2026-04-22 13:01 | 55.75132 | 9.69745 | 4025 ft | 255 kts | 272° |
| 2026-04-22 13:02 | 55.75127 | 9.66616 | 3884 ft | 249 kts | 273° |
| 2026-04-22 13:02 | 55.75123 | 9.63590 | 3768 ft | 241 kts | 272° |
| 2026-04-22 13:02 | 55.75119 | 9.60672 | 3696 ft | 234 kts | 273° |
| 2026-04-22 13:02 | 55.75114 | 9.57807 | 3528 ft | 231 kts | 272° |
| 2026-04-22 13:03 | 55.75107 | 9.54981 | 3296 ft | 227 kts | 272° |
| 2026-04-22 13:03 | 55.75121 | 9.52195 | 3093 ft | 224 kts | 273° |
| 2026-04-22 13:03 | 55.75126 | 9.49390 | 2986 ft | 228 kts | 272° |
| 2026-04-22 13:03 | 55.75054 | 9.46683 | 3005 ft | 211 kts | 269° |
| 2026-04-22 13:04 | 55.74964 | 9.44180 | 2983 ft | 200 kts | 270° |
| 2026-04-22 13:04 | 55.74905 | 9.41783 | 2913 ft | 192 kts | 270° |
| 2026-04-22 13:04 | 55.74804 | 9.39453 | 2674 ft | 185 kts | 269° |
| 2026-04-22 13:04 | 55.74730 | 9.37225 | 2437 ft | 179 kts | 269° |
| 2026-04-22 13:05 | 55.74694 | 9.35648 | 2292 ft | 173 kts | 270° |
| 2026-04-22 13:05 | 55.74620 | 9.33583 | 2054 ft | 162 kts | 268° |
| 2026-04-22 13:05 | 55.74542 | 9.31654 | 1875 ft | 155 kts | 268° |
| 2026-04-22 13:06 | 55.74504 | 9.30387 | 1719 ft | 154 kts | 271° |
| 2026-04-22 13:06 | 55.74457 | 9.28504 | 1507 ft | 151 kts | 269° |
| 2026-04-22 13:06 | 55.74393 | 9.26642 | 1299 ft | 151 kts | 269° |
| 2026-04-22 13:06 | 55.74320 | 9.24192 | 1041 ft | 148 kts | 270° |
| 2026-04-22 13:07 | 55.74253 | 9.22372 | 809 ft | 147 kts | 268° |
| 2026-04-22 13:07 | 55.74211 | 9.21151 | 657 ft | 146 kts | 268° |
| 2026-04-22 13:07 | 55.74163 | 9.19356 | 432 ft | 146 kts | 268° |
| 2026-04-22 13:07 | 55.74109 | 9.17586 | 240 ft | 135 kts | 268° |
| 2026-04-22 13:08 | 55.74060 | 9.16074 | 215 ft | 109 kts | 269° |
| 2026-04-22 13:08 | 55.74026 | 9.14945 | 218 ft | 72 kts | 266° |
| 2026-04-22 13:08 | 55.74016 | 9.14578 | 215 ft | 16 kts | 277° |
| 2026-04-22 13:08 | 55.74074 | 9.14487 | 218 ft | 11 kts | 2° |
| 2026-04-22 13:09 | 55.74126 | 9.14497 | 218 ft | 6 kts | 349° |
| 2026-04-22 13:09 | 55.74177 | 9.14485 | 217 ft | 10 kts | 356° |
| 2026-04-22 13:09 | 55.74261 | 9.14477 | 215 ft | 13 kts | 356° |
| 2026-04-22 13:09 | 55.74352 | 9.14468 | 217 ft | 13 kts | 356° |
| 2026-04-22 13:10 | 55.74430 | 9.14494 | 219 ft | 9 kts | 53° |
| 2026-04-22 13:10 | 55.74456 | 9.14558 | 222 ft | 5 kts | 23° |
| 2026-04-22 13:10 | 55.74494 | 9.14555 | 217 ft | 6 kts | 356° |
| 2026-04-22 13:10 | 55.74511 | 9.14554 | 215 ft | 0 kts | 357° |
| 2026-04-22 13:11 | 55.74523 | 9.14553 | 224 ft | 0 kts | 357° |